S28 weather

International Peace Garden Airport
Dunseith, North Dakota, United States

Public forecast

Using degrees Fahrenheit for public forecast. Weather courtesy of forecast.io.

Closest aviation weather report (METAR) to International Peace Garden Airport

Closest report is Rolla Municipal Airport, 18.0 nm (33.3 km) ESE. Retrieved 2020/06/05 08:55 UTC (10 minutes ago):

K06D 050855Z AUTO 31007KT 10SM CLR 08/05 A2990 RMK AO2

Closest aviation forecast (TAF) to International Peace Garden Airport

Closest forecast is Brandon Municipal Airport, 54.9 nm (101.6 km) N. Retrieved 2020/06/05 06:42 UTC (2 hours ago):

TAF TAF CYBR 050538Z 0506/0518 29006KT P6SM FEW250 FM051000 30008KT P6SM SCT006 FM051500 30012KT P6SM SCT040 BECMG 0516/0518 31012G22KT RMK NXT FCST BY 051200Z